AirNav   Pilot Hours Calculator
 
 1038 users online  

32FA Sunset Strip Airpark
Okeechobee, Florida, USA

GOING TO OKEECHOBEE?


FAA INFORMATION EFFECTIVE 15 AUGUST 2019

Location

FAA Identifier: 32FA
Lat/Long: 27-14-03.1660N 080-54-13.2240W
27-14.052767N 080-54.220400W
27.2342128,-80.9036733
(estimated)
Elevation: 34 ft. / 10 m (estimated)
Variation: 03W (1985)
From city: 3 miles W of OKEECHOBEE, FL
Time zone: UTC -4 (UTC -5 during Standard Time)
Zip code: 34974

Airport Operations

Airport use: Private use. Permission required prior to landing
Activation date: 07/1977
Control tower: no
ARTCC: MIAMI CENTER
FSS: SAINT PETERSBURG FLIGHT SERVICE STATION
Attendance: UNATNDD
Wind indicator: yes
Segmented circle: no

Airport Communications

WX AWOS-3 at OBE (3 nm NE): 118.675 (863-467-1148)

Nearby radio navigation aids

VOR radial/distance  VOR name  Freq  Var
PHKr337/29.4PAHOKEE VOR/DME115.4000E
TRVr227/34.6TREASURE VORTAC117.3007W
LBVr046/35.7LA BELLE VORTAC110.4001E

 
NDB name  Hdg/Dist  Freq  Var  ID
FORT PIERCE249/32.127507WFPR ..-. .--. .-.
UNITED308/36.140505WUTX ..- - -..-

Airport Services

Runway Information

Runway 8/26

Dimensions: 5000 x 100 ft. / 1524 x 30 m
Surface: turf
RUNWAY 8  RUNWAY 26
Traffic pattern: rightleft

Airport Ownership and Management from official FAA records

Ownership: Privately-owned
Owner: SUNSET STRIP AIRPARK INC
PO BOX 92
OKEECHOBEE, FL 34972
Phone 863-467-5808
Manager: EDDIE MATCHETT
SUNSET STRIP AIRPARK INC, PO BOX 92
OKEECHOBEE, FL 34972
Phone 863-467-5808

Airport Operational Statistics

Aircraft based on the field: 5
Single engine airplanes: 3
Multi engine airplanes: 2
    

Additional Remarks

FOR CD CTC MIAMI ARTCC AT 305-716-1731.

Instrument Procedures

There are no published instrument procedures at 32FA.

Some nearby airports with instrument procedures:

KOBE - Okeechobee County Airport (3 nm NE)
KSEF - Sebring Regional Airport (27 nm NW)
KPHK - Palm Beach County Glades Airport (29 nm SE)
2IS - Airglades Airport (31 nm S)
KFPR - Treasure Coast International Airport (32 nm NE)
 
Loc | Ops | Rwys | IFR | FBO | Links
Com | Nav | Svcs | Stats | Notes


 
Area around 32FA (Sunset Strip Airpark)
 
Road maps at: MapQuest Bing Google
 
Aerial photo
WARNING: Photo may not be current or correct
Aerial photo of 32FA (Sunset Strip Airpark)
Do you have a better or more recent aerial photo of Sunset Strip Airpark that you would like to share? If so, please send us your photo.

 
Sectional chart

 
Airport distance calculator
Flying to Sunset Strip Airpark? Find the distance to fly.

From to 32FA

Sunrise and sunset
Times for 24-Aug-2019
 Local
(UTC-4)
 Zulu
(UTC)
Morning civil twilight06:3610:36
Sunrise07:0011:00
Sunset19:5223:52
Evening civil twilight20:1600:16

Current date and time
Zulu (UTC)  24-Aug-2019 17:21:41
Local (UTC-4)  24-Aug-2019 13:21:41
 
METAR
KOBE 
3nm NE 
241655Z AUTO 04005KT 10SM BKN029 OVC039 30/24 A2994 RMK AO2
TAF
KFPR 
32nm NE 
241135Z 2412/2512 00000KT P6SM VCSH SCT025 BKN250 FM241400 15007KT P6SM VCSH SCT025 SCT040 BKN070 TEMPO 2417/2419 3SM SHRA BKN030 FM241900 11009KT P6SM VCSH BKN040 BKN090 FM250000 12006KT P6SM VCSH SCT020 BKN040
KVRB 
36nm NE 
241135Z 2412/2512 17005KT P6SM VCSH SCT025 BKN250 FM241400 14006KT P6SM VCSH SCT025 BKN040 BKN090 FM241800 09012KT P6SM VCSH BKN035 BKN090 FM250000 11006KT P6SM VCSH SCT020 BKN040
KSUA 
37nm E 
241135Z 2412/2512 19005KT P6SM VCSH SCT020 SCT090 BKN250 FM241400 16007KT P6SM VCSH SCT025 SCT040 BKN090 TEMPO 2417/2419 2SM SHRA BKN030 FM241900 11010KT P6SM VCSH BKN035 BKN090 FM250000 13005KT P6SM VCSH SCT020 BKN040
NOTAMs
Click for the latest NOTAMs
NOTAMs are issued by the DoD/FAA and will open in a separate window not controlled by AirNav.

 

 
 

Would you like to see your business listed on this page?

 If your business provides an interesting product or service to pilots, flight crews, aircraft, or users of the Sunset Strip Airpark, you should consider listing it here.  To start the listing process, click on the button below
 
Add a business
 

Other Pages about Sunset Strip Airpark

Update a link
 
Copyright © AirNav, LLC. All rights reserved. Privacy Policy  Contact